createdAt,value
2017-07-19T00:01:58.329Z,18.14
2017-07-19T00:04:26.922Z,18.14
2017-07-19T00:06:55.095Z,18.05
2017-07-19T00:09:23.222Z,17.95
2017-07-19T00:11:52.716Z,17.88
2017-07-19T00:14:21.330Z,17.80
2017-07-19T00:16:49.602Z,17.71
2017-07-19T00:19:19.092Z,17.70
2017-07-19T00:21:47.559Z,17.71
2017-07-19T00:24:16.271Z,17.71
2017-07-19T00:26:44.738Z,17.74
2017-07-19T00:29:13.131Z,17.70
2017-07-19T00:31:41.188Z,17.63
2017-07-19T00:34:09.376Z,17.71
2017-07-19T00:36:37.832Z,17.73
2017-07-19T00:39:06.182Z,17.63
2017-07-19T00:41:34.795Z,17.43
2017-07-19T00:44:03.538Z,17.41
2017-07-19T00:46:31.603Z,17.34
2017-07-19T00:49:01.590Z,17.53
2017-07-19T00:51:30.163Z,17.70
2017-07-19T00:53:58.444Z,17.86
2017-07-19T00:56:26.919Z,17.90
2017-07-19T00:58:55.328Z,17.78
2017-07-19T01:01:23.750Z,17.50
2017-07-19T01:03:52.078Z,17.41
2017-07-19T01:06:21.307Z,17.19
2017-07-19T01:08:49.603Z,17.19
2017-07-19T01:11:18.099Z,17.47
2017-07-19T01:13:46.703Z,17.64
2017-07-19T01:16:15.097Z,17.26
2017-07-19T01:18:43.188Z,17.16
2017-07-19T01:21:11.921Z,17.10
2017-07-19T01:23:40.195Z,16.92
2017-07-19T01:26:09.095Z,17.03
2017-07-19T01:28:37.582Z,17.08
2017-07-19T01:31:06.207Z,17.21
2017-07-19T01:33:34.295Z,17.30
2017-07-19T01:36:04.083Z,17.30
2017-07-19T01:38:32.246Z,17.17
2017-07-19T01:41:02.375Z,17.12
2017-07-19T01:43:30.771Z,16.95
2017-07-19T01:46:01.796Z,16.63
2017-07-19T01:48:30.065Z,16.64
2017-07-19T01:50:58.511Z,16.64
2017-07-19T01:53:28.051Z,16.53
2017-07-19T01:55:56.186Z,16.48
2017-07-19T01:58:25.331Z,16.72
2017-07-19T02:00:53.964Z,16.95
2017-07-19T02:03:22.616Z,17.06
2017-07-19T02:05:51.048Z,16.73
2017-07-19T02:08:19.627Z,16.38
2017-07-19T02:10:47.718Z,16.32
2017-07-19T02:13:16.406Z,16.27
2017-07-19T02:15:44.922Z,16.28
2017-07-19T02:18:13.131Z,16.16
2017-07-19T02:20:42.143Z,16.17
2017-07-19T02:23:10.500Z,16.35
2017-07-19T02:25:38.871Z,16.18
2017-07-19T02:28:07.349Z,16.19
2017-07-19T02:30:36.380Z,16.53
2017-07-19T02:33:05.206Z,16.60
2017-07-19T02:35:33.630Z,16.32
2017-07-19T02:38:05.704Z,16.18
2017-07-19T02:40:35.107Z,16.20
2017-07-19T02:43:03.746Z,16.45
2017-07-19T02:45:32.487Z,16.45
2017-07-19T02:48:02.768Z,16.58
2017-07-19T02:50:31.151Z,16.64
2017-07-19T02:53:00.823Z,16.67
2017-07-19T02:55:29.563Z,16.52
2017-07-19T02:57:57.865Z,16.52
2017-07-19T03:00:26.256Z,16.03
2017-07-19T03:02:55.106Z,15.70
2017-07-19T03:05:23.680Z,15.74
2017-07-19T03:07:52.120Z,15.86
2017-07-19T03:10:21.056Z,15.90
2017-07-19T03:12:49.325Z,16.07
2017-07-19T03:15:17.808Z,16.23
2017-07-19T03:17:46.204Z,15.99
2017-07-19T03:20:14.972Z,15.68
2017-07-19T03:22:49.889Z,15.98
2017-07-19T03:25:18.705Z,15.83
2017-07-19T03:27:47.076Z,15.63
2017-07-19T03:30:15.736Z,15.57
2017-07-19T03:32:44.339Z,15.69
2017-07-19T03:35:13.035Z,15.81
2017-07-19T03:37:41.292Z,15.71
2017-07-19T03:40:09.895Z,15.61
2017-07-19T03:42:42.398Z,15.63
2017-07-19T03:45:11.065Z,15.52
2017-07-19T03:47:39.787Z,15.69
2017-07-19T03:50:08.155Z,15.51
2017-07-19T03:52:36.678Z,15.51
2017-07-19T03:55:05.072Z,15.51
2017-07-19T03:57:33.949Z,15.42
2017-07-19T04:00:02.933Z,15.46
2017-07-19T04:02:35.826Z,15.51
2017-07-19T04:05:18.791Z,15.53
2017-07-19T04:07:47.454Z,15.86
2017-07-19T04:10:16.395Z,16.05
2017-07-19T04:12:44.819Z,16.22
2017-07-19T04:15:13.324Z,16.33
2017-07-19T04:17:41.765Z,16.25
2017-07-19T04:20:10.687Z,16.02
2017-07-19T04:22:38.847Z,16.37
2017-07-19T04:25:07.302Z,16.52
2017-07-19T04:27:35.915Z,16.68
2017-07-19T04:30:05.065Z,16.72
2017-07-19T04:32:33.234Z,16.75
2017-07-19T04:35:03.658Z,16.74
2017-07-19T04:37:32.423Z,16.77
2017-07-19T04:40:04.183Z,16.64
2017-07-19T04:42:32.759Z,16.47
2017-07-19T04:45:02.884Z,16.40
2017-07-19T04:47:31.487Z,16.40
2017-07-19T04:50:01.881Z,16.63
2017-07-19T04:52:30.464Z,16.67
2017-07-19T04:54:59.667Z,16.42
2017-07-19T04:57:27.731Z,16.49
2017-07-19T04:59:56.498Z,16.68
2017-07-19T05:02:25.035Z,16.63
2017-07-19T05:04:53.411Z,16.64
2017-07-19T05:07:21.904Z,16.92
2017-07-19T05:09:50.093Z,16.80
2017-07-19T05:12:18.727Z,16.92
2017-07-19T05:14:47.596Z,17.07
2017-07-19T05:17:15.971Z,17.12
2017-07-19T05:19:44.489Z,17.29
2017-07-19T05:22:13.032Z,17.45
2017-07-19T05:24:41.692Z,17.49
2017-07-19T05:27:12.602Z,17.55
2017-07-19T05:29:40.979Z,17.73
2017-07-19T05:32:09.540Z,17.81
2017-07-19T05:34:38.068Z,17.63
2017-07-19T05:37:07.007Z,17.77
2017-07-19T05:39:35.427Z,17.84
2017-07-19T05:42:03.584Z,17.93
2017-07-19T05:44:32.348Z,17.81
2017-07-19T05:47:01.904Z,17.84
2017-07-19T05:49:30.399Z,18.02
2017-07-19T05:51:59.812Z,18.13
2017-07-19T05:54:27.913Z,18.05
2017-07-19T05:56:55.974Z,18.23
2017-07-19T05:59:24.408Z,18.38
2017-07-19T06:01:52.844Z,18.56
2017-07-19T06:04:21.146Z,18.67
2017-07-19T06:06:50.102Z,18.59
2017-07-19T06:09:18.166Z,18.67
2017-07-19T06:11:46.311Z,18.87
2017-07-19T06:14:15.088Z,19.03
2017-07-19T06:16:43.528Z,19.01
2017-07-19T06:19:12.044Z,18.85
2017-07-19T06:21:40.764Z,18.84
2017-07-19T06:24:09.288Z,19.07
2017-07-19T06:26:37.435Z,18.88
2017-07-19T06:29:05.801Z,19.16
2017-07-19T06:31:33.919Z,19.22
2017-07-19T06:34:03.612Z,19.23
2017-07-19T06:36:32.027Z,19.49
2017-07-19T06:39:01.841Z,19.85
2017-07-19T06:41:30.423Z,20.07
2017-07-19T06:43:58.950Z,20.22
2017-07-19T06:46:27.072Z,20.43
2017-07-19T06:48:55.202Z,20.55
2017-07-19T06:51:23.592Z,20.52
2017-07-19T06:53:52.118Z,20.50
2017-07-19T06:56:20.443Z,20.82
2017-07-19T06:58:48.813Z,20.56
2017-07-19T07:01:17.279Z,20.57
2017-07-19T07:03:45.539Z,20.84
2017-07-19T07:06:13.940Z,21.22
2017-07-19T07:08:42.300Z,20.98
2017-07-19T07:11:10.459Z,21.56
2017-07-19T07:13:38.914Z,21.51
2017-07-19T07:16:07.174Z,21.92
2017-07-19T07:18:35.248Z,21.76
2017-07-19T07:21:03.627Z,22.20
2017-07-19T07:23:31.716Z,22.11
2017-07-19T07:26:01.074Z,22.69
2017-07-19T07:28:29.575Z,22.97
2017-07-19T07:30:57.730Z,23.23
2017-07-19T07:33:26.467Z,23.32
2017-07-19T07:35:55.200Z,23.10
2017-07-19T07:38:23.283Z,23.03
2017-07-19T07:40:51.355Z,23.66
2017-07-19T07:43:19.740Z,23.73
2017-07-19T07:45:47.807Z,23.98
2017-07-19T07:48:16.139Z,23.22
2017-07-19T07:50:44.493Z,23.67
2017-07-19T07:53:13.115Z,24.75
2017-07-19T07:55:41.194Z,24.35
2017-07-19T07:58:09.603Z,25.14
2017-07-19T08:00:37.700Z,25.70
2017-07-19T08:03:05.803Z,25.87
2017-07-19T08:05:34.419Z,25.71
2017-07-19T08:08:03.407Z,26.25
2017-07-19T08:10:31.847Z,26.36
2017-07-19T08:13:01.831Z,26.72
2017-07-19T08:15:30.061Z,26.08
2017-07-19T08:17:58.380Z,26.25
2017-07-19T08:20:27.139Z,26.18
2017-07-19T08:22:55.820Z,25.84
2017-07-19T08:25:24.012Z,26.56
2017-07-19T08:27:52.383Z,26.42
2017-07-19T08:30:20.931Z,27.20
2017-07-19T08:32:49.048Z,26.98
2017-07-19T08:35:17.752Z,26.83
2017-07-19T08:37:53.635Z,27.08
2017-07-19T08:40:22.110Z,27.11
2017-07-19T08:42:50.479Z,27.43
2017-07-19T08:45:19.263Z,27.51
2017-07-19T08:47:47.342Z,28.12
2017-07-19T08:50:16.138Z,28.04
2017-07-19T08:52:44.255Z,28.55
2017-07-19T08:55:13.100Z,28.72
2017-07-19T08:57:41.999Z,29.08
2017-07-19T09:00:10.679Z,28.97
2017-07-19T09:02:39.039Z,29.15
2017-07-19T09:05:07.944Z,29.41
2017-07-19T09:07:36.024Z,29.42
2017-07-19T09:10:04.854Z,29.01
2017-07-19T09:12:33.900Z,28.90
2017-07-19T09:15:03.692Z,28.95
2017-07-19T09:17:31.816Z,28.81
2017-07-19T09:20:01.524Z,29.68
2017-07-19T09:22:29.618Z,30.20
2017-07-19T09:24:57.878Z,30.40
2017-07-19T09:27:26.211Z,30.61
2017-07-19T09:29:54.485Z,30.93
2017-07-19T09:32:22.667Z,30.91
2017-07-19T09:34:51.067Z,31.17
2017-07-19T09:37:19.142Z,30.99
2017-07-19T09:39:47.227Z,31.47
2017-07-19T09:42:15.583Z,30.45
2017-07-19T09:44:43.672Z,30.55
2017-07-19T09:47:12.131Z,31.51
2017-07-19T09:49:41.173Z,31.84
2017-07-19T09:52:09.262Z,31.99
2017-07-19T09:54:37.434Z,31.63
2017-07-19T09:57:05.864Z,31.69
2017-07-19T09:59:33.975Z,31.24
2017-07-19T10:02:03.451Z,30.90
2017-07-19T10:04:31.570Z,31.44
2017-07-19T10:07:01.134Z,31.91
2017-07-19T10:09:29.215Z,32.28
2017-07-19T10:11:57.612Z,32.12
2017-07-19T10:14:25.711Z,32.28
2017-07-19T10:16:53.794Z,32.60
2017-07-19T10:19:22.222Z,32.70
2017-07-19T10:21:50.966Z,32.65
2017-07-19T10:24:19.307Z,33.09
2017-07-19T10:26:47.728Z,33.48
2017-07-19T10:29:15.847Z,33.48
2017-07-19T10:31:43.956Z,33.42
2017-07-19T10:34:12.331Z,33.22
2017-07-19T10:36:40.446Z,32.59
2017-07-19T10:39:08.551Z,33.06
2017-07-19T10:41:36.934Z,32.61
2017-07-19T10:44:05.051Z,32.83
2017-07-19T10:46:33.246Z,32.50
2017-07-19T10:49:03.172Z,32.97
2017-07-19T10:51:31.274Z,33.53
2017-07-19T10:54:00.433Z,33.78
2017-07-19T10:56:31.958Z,33.99
2017-07-19T10:59:01.076Z,33.86
2017-07-19T11:01:29.336Z,33.95
2017-07-19T11:03:57.696Z,33.50
2017-07-19T11:06:25.803Z,33.29
2017-07-19T11:08:56.558Z,33.74
2017-07-19T11:11:24.927Z,33.32
2017-07-19T11:13:53.051Z,34.05
2017-07-19T11:16:21.198Z,34.77
2017-07-19T11:18:49.599Z,34.89
2017-07-19T11:21:17.673Z,35.12
2017-07-19T11:23:45.723Z,34.19
2017-07-19T11:26:14.095Z,34.27
2017-07-19T11:28:42.332Z,34.55
2017-07-19T11:31:10.395Z,34.91
2017-07-19T11:33:39.388Z,34.94
2017-07-19T11:36:08.151Z,35.04
2017-07-19T11:38:36.448Z,34.54
2017-07-19T11:41:05.182Z,34.12
2017-07-19T11:43:33.517Z,34.06
2017-07-19T11:46:02.616Z,33.92
2017-07-19T11:48:31.029Z,33.72
2017-07-19T11:50:59.845Z,33.37
2017-07-19T11:53:27.976Z,34.02
2017-07-19T11:55:56.346Z,33.62
2017-07-19T11:58:25.611Z,33.17
2017-07-19T12:00:54.315Z,33.01
2017-07-19T12:03:22.707Z,33.31
2017-07-19T12:05:50.776Z,33.28
2017-07-19T12:08:18.847Z,34.12
2017-07-19T12:10:47.191Z,35.01
2017-07-19T12:13:15.283Z,35.62
2017-07-19T12:15:43.475Z,35.60
2017-07-19T12:18:11.872Z,35.04
2017-07-19T12:20:39.951Z,35.48
2017-07-19T12:23:08.081Z,34.84
2017-07-19T12:25:36.439Z,34.72
2017-07-19T12:28:04.527Z,35.20
2017-07-19T12:30:32.610Z,35.62
2017-07-19T12:33:02.745Z,35.68
2017-07-19T12:35:31.370Z,36.48
2017-07-19T12:38:01.696Z,35.89
2017-07-19T12:40:30.325Z,35.85
2017-07-19T12:42:58.539Z,34.53
2017-07-19T12:45:26.671Z,33.83
2017-07-19T12:47:55.019Z,33.50
2017-07-19T12:50:23.121Z,34.01
2017-07-19T12:52:51.199Z,34.82
2017-07-19T12:55:19.555Z,35.39
2017-07-19T12:57:48.003Z,34.75
2017-07-19T13:00:16.095Z,34.51
2017-07-19T13:02:44.435Z,33.94
2017-07-19T13:05:12.512Z,33.66
2017-07-19T13:07:40.583Z,33.71
2017-07-19T13:10:09.091Z,33.94
2017-07-19T13:12:37.167Z,34.55
2017-07-19T13:15:05.359Z,35.07
2017-07-19T13:17:33.758Z,35.07
2017-07-19T13:20:03.566Z,35.05
2017-07-19T13:22:31.671Z,34.69
2017-07-19T13:25:01.315Z,35.12
2017-07-19T13:27:29.496Z,34.88
2017-07-19T13:29:57.623Z,35.31
2017-07-19T13:32:25.990Z,35.20
2017-07-19T13:34:54.087Z,34.96
2017-07-19T13:37:22.207Z,35.50
2017-07-19T13:39:50.564Z,35.87
2017-07-19T13:42:18.665Z,35.43
2017-07-19T13:44:46.803Z,35.78
2017-07-19T13:47:15.203Z,35.89
2017-07-19T13:49:43.432Z,36.36
2017-07-19T13:52:11.499Z,36.26
2017-07-19T13:54:39.858Z,35.85
2017-07-19T13:57:07.951Z,35.81
2017-07-19T13:59:36.028Z,35.67
2017-07-19T14:02:04.448Z,35.78
2017-07-19T14:04:33.196Z,36.26
2017-07-19T14:07:02.459Z,35.87
2017-07-19T14:09:31.751Z,35.73
2017-07-19T14:12:01.127Z,35.42
2017-07-19T14:14:29.212Z,36.34
2017-07-19T14:16:57.642Z,36.07
2017-07-19T14:19:25.779Z,35.43
2017-07-19T14:21:54.404Z,35.60
2017-07-19T14:24:22.760Z,35.67
2017-07-19T14:26:51.119Z,35.31
2017-07-19T14:29:19.203Z,35.28
2017-07-19T14:31:47.609Z,34.90
2017-07-19T14:34:15.742Z,34.75
2017-07-19T14:36:44.076Z,34.69
2017-07-19T14:39:12.427Z,35.32
2017-07-19T14:41:40.795Z,35.08
2017-07-19T14:44:09.083Z,35.57
2017-07-19T14:46:37.912Z,35.45
2017-07-19T14:49:05.983Z,34.99
2017-07-19T14:51:34.047Z,35.16
2017-07-19T14:54:03.615Z,35.55
2017-07-19T14:56:31.788Z,34.95
2017-07-19T14:59:03.323Z,34.83
2017-07-19T15:01:34.567Z,34.21
2017-07-19T15:04:03.705Z,34.24
2017-07-19T15:06:31.895Z,34.35
2017-07-19T15:09:02.395Z,34.66
2017-07-19T15:11:30.643Z,34.72
2017-07-19T15:14:00.038Z,34.98
2017-07-19T15:16:28.526Z,35.21
2017-07-19T15:18:56.843Z,35.30
2017-07-19T15:21:24.915Z,34.58
2017-07-19T15:23:53.287Z,34.56
2017-07-19T15:26:21.379Z,34.42
2017-07-19T15:28:49.501Z,34.52
2017-07-19T15:31:17.908Z,34.71
2017-07-19T15:33:46.015Z,34.51
2017-07-19T15:36:14.095Z,34.44
2017-07-19T15:38:42.467Z,34.19
2017-07-19T15:41:10.567Z,34.08
2017-07-19T15:43:38.656Z,34.27
2017-07-19T15:46:07.091Z,33.75
2017-07-19T15:48:35.163Z,33.41
2017-07-19T15:51:03.563Z,33.14
2017-07-19T15:53:32.054Z,33.04
2017-07-19T15:56:02.605Z,32.75
2017-07-19T15:58:31.163Z,32.74
2017-07-19T16:01:01.486Z,32.65
2017-07-19T16:03:29.655Z,32.85
2017-07-19T16:05:57.863Z,32.73
2017-07-19T16:08:28.245Z,32.61
2017-07-19T16:10:56.877Z,32.57
2017-07-19T16:13:25.161Z,32.68
2017-07-19T16:15:53.544Z,33.25
2017-07-19T16:18:21.612Z,33.41
2017-07-19T16:20:49.675Z,33.56
2017-07-19T16:23:18.283Z,33.49
2017-07-19T16:25:46.875Z,33.52
2017-07-19T16:28:14.935Z,33.04
2017-07-19T16:30:43.294Z,32.90
2017-07-19T16:33:11.428Z,32.93
2017-07-19T16:35:39.843Z,32.71
2017-07-19T16:38:08.223Z,33.12
2017-07-19T16:40:36.360Z,33.05
2017-07-19T16:43:04.429Z,32.87
2017-07-19T16:45:33.284Z,32.84
2017-07-19T16:48:02.585Z,32.84
2017-07-19T16:50:30.671Z,32.86
2017-07-19T16:52:59.871Z,32.70
2017-07-19T16:55:28.251Z,32.71
2017-07-19T16:57:56.336Z,32.66
2017-07-19T17:00:24.666Z,32.63
2017-07-19T17:02:52.737Z,32.48
2017-07-19T17:05:20.816Z,32.38
2017-07-19T17:07:49.187Z,32.45
2017-07-19T17:10:17.307Z,32.38
2017-07-19T17:12:45.406Z,32.15
2017-07-19T17:15:13.803Z,32.03
2017-07-19T17:17:41.888Z,31.99
2017-07-19T17:20:10.066Z,32.05
2017-07-19T17:22:38.482Z,31.87
2017-07-19T17:25:06.552Z,31.81
2017-07-19T17:27:34.742Z,31.79
2017-07-19T17:30:03.852Z,31.77
2017-07-19T17:32:31.962Z,31.67
2017-07-19T17:35:01.215Z,31.64
2017-07-19T17:37:33.363Z,31.60
2017-07-19T17:40:02.907Z,31.63
2017-07-19T17:42:31.066Z,31.63
2017-07-19T17:45:01.279Z,31.58
2017-07-19T17:47:29.560Z,31.49
2017-07-19T17:49:57.636Z,31.45
2017-07-19T17:52:26.006Z,31.40
2017-07-19T17:54:54.135Z,31.29
2017-07-19T17:57:22.201Z,31.25
2017-07-19T17:59:50.591Z,31.13
2017-07-19T18:02:18.679Z,31.03
2017-07-19T18:04:46.799Z,30.89
2017-07-19T18:07:15.198Z,30.82
2017-07-19T18:09:43.515Z,30.77
2017-07-19T18:12:11.783Z,30.60
2017-07-19T18:14:40.942Z,30.50
2017-07-19T18:17:09.276Z,30.39
2017-07-19T18:19:37.334Z,30.40
2017-07-19T18:22:05.714Z,30.28
2017-07-19T18:24:33.815Z,30.15
2017-07-19T18:27:03.319Z,30.12
2017-07-19T18:29:31.815Z,29.93
2017-07-19T18:32:01.284Z,29.81
2017-07-19T18:34:29.695Z,29.87
2017-07-19T18:36:58.197Z,29.62
2017-07-19T18:39:26.321Z,29.60
2017-07-19T18:41:54.450Z,29.43
2017-07-19T18:44:22.853Z,29.35
2017-07-19T18:46:50.924Z,29.22
2017-07-19T18:49:19.026Z,29.04
2017-07-19T18:51:47.382Z,29.02
2017-07-19T18:54:15.456Z,29.06
2017-07-19T18:56:43.603Z,28.88
2017-07-19T18:59:11.988Z,28.64
2017-07-19T19:01:40.236Z,28.48
2017-07-19T19:04:08.301Z,28.34
2017-07-19T19:06:36.662Z,28.38
2017-07-19T19:09:04.994Z,28.42
2017-07-19T19:11:36.500Z,28.28
2017-07-19T19:14:05.025Z,27.98
2017-07-19T19:16:33.132Z,27.70
2017-07-19T19:19:02.712Z,27.46
2017-07-19T19:21:31.127Z,25.94
2017-07-19T19:23:59.727Z,25.28
2017-07-19T19:26:27.888Z,25.10
2017-07-19T19:28:56.375Z,24.61
2017-07-19T19:31:24.434Z,24.48
2017-07-19T19:33:52.538Z,24.21
2017-07-19T19:36:21.116Z,24.31
2017-07-19T19:38:49.222Z,23.83
2017-07-19T19:41:17.316Z,23.54
2017-07-19T19:43:48.725Z,23.06
2017-07-19T19:46:17.044Z,21.54
2017-07-19T19:48:45.427Z,21.01
2017-07-19T19:51:15.862Z,21.50
2017-07-19T19:53:43.955Z,21.68
2017-07-19T19:56:12.345Z,20.74
2017-07-19T19:58:40.416Z,20.13
2017-07-19T20:01:08.671Z,20.06
2017-07-19T20:03:37.046Z,19.54
2017-07-19T20:06:05.494Z,20.13
2017-07-19T20:08:33.647Z,20.16
2017-07-19T20:11:02.055Z,20.96
2017-07-19T20:13:30.135Z,20.47
2017-07-19T20:15:58.223Z,20.93
2017-07-19T20:18:26.610Z,19.99
2017-07-19T20:20:54.673Z,20.04
2017-07-19T20:23:22.797Z,20.17
2017-07-19T20:25:51.152Z,20.74
2017-07-19T20:28:19.294Z,20.45
2017-07-19T20:30:47.372Z,20.52
2017-07-19T20:33:15.719Z,21.27
2017-07-19T20:35:43.798Z,21.51
2017-07-19T20:38:11.878Z,21.35
2017-07-19T20:40:40.448Z,21.32
2017-07-19T20:43:08.511Z,20.78
2017-07-19T20:45:37.055Z,20.10
2017-07-19T20:48:05.472Z,20.44
2017-07-19T20:50:33.539Z,20.69
2017-07-19T20:53:01.619Z,20.63
2017-07-19T20:55:30.001Z,20.56
2017-07-19T20:57:58.083Z,20.25
2017-07-19T21:00:26.152Z,19.67
2017-07-19T21:02:54.526Z,19.47
2017-07-19T21:05:22.818Z,19.84
2017-07-19T21:07:51.491Z,20.01
2017-07-19T21:10:20.016Z,19.78
2017-07-19T21:12:48.086Z,19.82
2017-07-19T21:15:16.578Z,20.14
2017-07-19T21:17:44.927Z,20.33
2017-07-19T21:20:13.529Z,20.50
2017-07-19T21:22:41.806Z,20.34
2017-07-19T21:25:10.599Z,20.28
2017-07-19T21:27:39.604Z,20.31
2017-07-19T21:30:07.829Z,20.59
2017-07-19T21:35:03.556Z,20.56
2017-07-19T21:37:31.619Z,20.19
2017-07-19T21:39:59.970Z,20.16
2017-07-19T21:42:28.051Z,19.90
2017-07-19T21:44:56.139Z,19.70
2017-07-19T21:47:24.548Z,20.23
2017-07-19T21:49:52.616Z,20.47
2017-07-19T21:52:20.721Z,20.70
2017-07-19T21:54:49.441Z,20.79
2017-07-19T21:57:17.832Z,20.80
2017-07-19T21:59:45.900Z,20.67
2017-07-19T22:02:14.403Z,20.59
2017-07-19T22:04:42.499Z,20.59
2017-07-19T22:07:10.595Z,20.56
2017-07-19T22:09:38.984Z,20.49
2017-07-19T22:12:07.177Z,20.39
2017-07-19T22:14:35.255Z,20.41
2017-07-19T22:17:03.689Z,20.37
2017-07-19T22:19:31.791Z,20.33
2017-07-19T22:22:00.422Z,20.27
2017-07-19T22:24:29.331Z,20.31
2017-07-19T22:26:57.392Z,20.33
2017-07-19T22:29:25.964Z,20.31
2017-07-19T22:31:54.799Z,20.23
2017-07-19T22:34:23.271Z,20.16
2017-07-19T22:36:51.444Z,20.06
2017-07-19T22:39:19.887Z,20.11
2017-07-19T22:41:48.226Z,20.09
2017-07-19T22:44:16.859Z,20.02
2017-07-19T22:46:45.738Z,19.91
2017-07-19T22:49:14.140Z,19.96
2017-07-19T22:51:43.366Z,19.92
2017-07-19T22:54:11.941Z,19.92
2017-07-19T22:56:40.497Z,19.87
2017-07-19T22:59:08.591Z,19.83
2017-07-19T23:01:37.255Z,19.87
2017-07-19T23:04:05.526Z,19.89
2017-07-19T23:06:33.904Z,19.90
2017-07-19T23:09:02.895Z,19.86
2017-07-19T23:11:31.467Z,19.82
2017-07-19T23:13:59.957Z,19.87
2017-07-19T23:16:28.767Z,19.84
2017-07-19T23:18:57.371Z,19.83
2017-07-19T23:21:25.912Z,19.85
2017-07-19T23:23:54.407Z,19.74
2017-07-19T23:26:23.324Z,19.72
2017-07-19T23:28:51.870Z,19.76
2017-07-19T23:31:20.239Z,19.68
2017-07-19T23:33:48.852Z,19.70
2017-07-19T23:36:17.119Z,19.73
2017-07-19T23:38:45.407Z,19.70
2017-07-19T23:41:14.784Z,19.71
2017-07-19T23:43:43.271Z,19.68
2017-07-19T23:46:11.536Z,19.72
2017-07-19T23:48:40.422Z,19.76
2017-07-19T23:51:08.517Z,19.65
2017-07-19T23:53:37.032Z,19.55
2017-07-19T23:56:05.704Z,19.27
2017-07-19T23:58:33.940Z,18.94
